Oktibbeha, Mississippi
Current Conditions -  °F | °C
As of 7:35 PM on Sunday 23 Nov 2014 (Local Time) from KSTF Reporting Station
NA  
Wind Chill: 61°   Ceiling: NA
Heat Index: 61°   Visibility: NA
Dew Point: 57°   Wind: 6mph
Humidity: 88%   Direction: 170°S
Pressure: 29.56"   Gusts: NA
Location:  33.5028°N, 89.0527°W
Report Text: KSTF 240135Z AUTO 17005KT 16/14 A2956 RMK AO2 PWINO
Loading
Personal Weather Stations






























Interactive Weather Map New forecast layout! Learn more

10-Day Weather Forecast

Advertisements
Track Severe Weather on mobile